Flight Track Log - Related Links

Times and Time Zones

All times are in EDT time to prevent confusion due to time zone crossing. See the EJA929 flight status page for this flight to view local times or setup timezone preferences in your user account.

Time Position Orientation Groundspeed Altitude Reporting Facility
EDT Latitude Longitude Course Direction KTS MPH feet Rate Location/Type
Thu 10:18:14 PM 39.9500 -105.1667 342° North 224 258 7,800  Level Denver TRACON
Thu 10:19:14 PM 40.0167 -105.1333 21° North 276 318 11,100 2,050 Climbing Denver TRACON
Thu 10:20:14 PM 40.1167 -105.0667 27° Northeast 381 438 11,900 407 Climbing Denver TRACON
Thu 10:21:12 PM 40.1975 -104.9925 35° Northeast 419 482 11,900 2,000 Level Denver Center
Thu 10:22:14 PM 40.2969 -104.9253 27° Northeast 362 417 15,900 2,565 Climbing Denver Center
Thu 10:23:00 PM 40.5920 -105.3966 342° North  Level FlightAware Approximate
Thu 10:23:16 PM 40.3969 -104.9147 North 361 415 17,200  Level Denver Center
Thu 10:24:18 PM 40.5153 -104.8958 North 399 459 18,900 1,645 Climbing Denver Center
Thu 10:25:20 PM 40.6278 -104.8792 North 406 467 20,600 1,632 Climbing Denver Center
Thu 10:26:34 PM 40.7675 -104.8539 North 413 475 22,600 1,588 Climbing Denver Center
Thu 10:27:36 PM 40.8878 -104.8375 North 435 501 24,200 1,597 Climbing Denver Center
Thu 10:28:38 PM 41.0131 -104.8208 North 449 517 25,900 871 Climbing Denver Center
Thu 10:29:40 PM 41.1575 -104.8306 357° North 476 548 26,000 97 Climbing Denver Center
Thu 10:30:42 PM 41.2489 -104.9406 318° Northwest 471 542 26,100 1,600 Climbing Denver Center
Thu 10:31:55 PM 41.3133 -105.1019 298° West 447 514 29,600 2,162 Climbing Denver Center
Thu 10:32:58 PM 41.3756 -105.2558 298° West 429 494 31,000 1,584 Climbing Denver Center
Thu 10:34:00 PM 41.4414 -105.4200 298° West 440 506 32,900 1,790 Climbing Denver Center
Thu 10:35:02 PM 41.4978 -105.5633 298° West 451 519 34,700 2,098 Climbing Denver Center
Thu 10:36:03 PM 41.5631 -105.7317 297° West 455 524 37,200 1,610 Climbing Denver Center
Thu 10:37:05 PM 41.6203 -105.8744 298° West 454 522 38,000 387 Climbing Denver Center
Thu 10:38:07 PM 41.6897 -106.0486 298° West 470 541 38,000  Level Denver Center
Thu 10:39:09 PM 41.7475 -106.1969 298° West 469 540 38,000  Level Denver Center
Thu 10:40:11 PM 41.8072 -106.3511 298° West 479 551 38,000  Level Denver Center
Thu 10:41:13 PM 41.8769 -106.5303 298° West 487 560 38,000  Level Denver Center
Thu 10:42:15 PM 41.9347 -106.6769 298° West 473 544 38,000  Level Denver Center
Thu 10:43:17 PM 41.9989 -106.8464 297° West 459 528 38,000  Level Denver Center
Thu 10:44:19 PM 42.0531 -106.9906 297° West 456 525 38,000  Level Denver Center
Thu 10:45:20 PM 42.1150 -107.1572 297° West 447 514 38,000  Level Denver Center
Thu 10:46:22 PM 42.1694 -107.3017 297° West 450 518 38,000  Level Denver Center
Thu 10:47:24 PM 42.2314 -107.4672 297° West 445 512 38,000  Level Denver Center
Thu 10:48:26 PM 42.2825 -107.6081 296° West 439 505 38,000  Level Denver Center
Thu 10:49:28 PM 42.3458 -107.7758 297° West 449 517 38,000  Level Denver Center
Thu 10:50:30 PM 42.3981 -107.9194 296° West 448 516 38,000  Level Denver Center
Thu 10:51:41 PM 42.4678 -108.1125 296° West 447 514 38,000  Level Salt Lake Center
Thu 10:52:42 PM 42.5211 -108.2575 297° West 451 519 38,000  Level Salt Lake Center
Thu 10:53:44 PM 42.5744 -108.4047 296° West 454 522 38,000  Level Salt Lake Center
Thu 10:54:45 PM 42.6347 -108.5744 296° West 452 520 38,000  Level Salt Lake Center
Thu 10:55:47 PM 42.6875 -108.7214 296° West 454 522 38,000  Level Salt Lake Center
Thu 10:56:48 PM 42.7475 -108.8928 296° West 452 520 38,000  Level Salt Lake Center
Thu 10:57:50 PM 42.8000 -109.0411 296° West 455 524 38,000  Level Salt Lake Center
Thu 10:58:51 PM 42.8611 -109.2156 296° West 457 526 38,000  Level Salt Lake Center
Thu 10:59:53 PM 42.9131 -109.3644 296° West 456 525 38,000  Level Salt Lake Center
Thu 11:00:54 PM 42.9700 -109.5303 295° West 453 521 38,000  Level Salt Lake Center
Thu 11:01:56 PM 43.0225 -109.6797 296° West 454 522 38,000  Level Salt Lake Center
Thu 11:02:57 PM 43.0739 -109.8306 295° West 456 525 38,000  Level Salt Lake Center
Thu 11:03:59 PM 43.1356 -110.0119 295° West 455 524 38,000  Level Salt Lake Center
Thu 11:05:00 PM 43.1867 -110.1644 295° West 459 528 38,000  Level Salt Lake Center
Thu 11:06:02 PM 43.2447 -110.3378 295° West 453 521 38,000  Level Salt Lake Center
Thu 11:07:03 PM 43.2956 -110.4864 295° West 453 521 38,000  Level Salt Lake Center
Thu 11:08:05 PM 43.3478 -110.6406 295° West 456 525 38,000  Level Salt Lake Center
Thu 11:09:06 PM 43.4069 -110.8172 295° West 455 524 38,000  Level Salt Lake Center
Thu 11:10:08 PM 43.4564 -110.9717 294° West 460 529 38,000  Level Salt Lake Center
Thu 11:11:09 PM 43.5061 -111.1217 295° West 452 520 38,000 836 Level Salt Lake Center
Thu 11:12:10 PM 43.5633 -111.2975 294° West 448 516 39,700 976 Climbing Salt Lake Center
Thu 11:13:12 PM 43.6122 -111.4481 294° West 448 516 40,000 146 Climbing Salt Lake Center
Thu 11:14:13 PM 43.6717 -111.6311 294° West 466 536 40,000  Level Salt Lake Center
Thu 11:15:15 PM 43.7219 -111.7925 293° West 474 545 40,000  Level Salt Lake Center
Thu 11:16:16 PM 43.7719 -111.9478 294° West 464 534 40,000  Level Salt Lake Center
Thu 11:17:18 PM 43.8308 -112.1333 294° West 466 536 40,000  Level Salt Lake Center
Thu 11:18:19 PM 43.8800 -112.2914 293° West 468 539 40,000  Level Salt Lake Center
Thu 11:19:20 PM 43.9289 -112.4497 293° West 467 537 40,000  Level Salt Lake Center
Thu 11:20:22 PM 43.9856 -112.6356 293° West 468 539 40,000  Level Salt Lake Center
Thu 11:21:23 PM 44.0344 -112.7950 293° West 468 539 40,000  Level Salt Lake Center
Thu 11:22:25 PM 44.0906 -112.9819 293° West 468 539 40,000  Level Salt Lake Center
Thu 11:23:26 PM 44.1406 -113.1425 294° West 469 540 40,000  Level Salt Lake Center
Thu 11:24:27 PM 44.1881 -113.3033 292° West 470 541 40,000  Level Salt Lake Center
Thu 11:25:29 PM 44.2442 -113.4908 293° West 470 541 40,000  Level Salt Lake Center
Thu 11:26:30 PM 44.2919 -113.6497 293° West 467 537 40,000  Level Salt Lake Center
Thu 11:27:31 PM 44.3481 -113.8358 293° West 466 536 40,000  Level Salt Lake Center
Thu 11:28:33 PM 44.3939 -113.9961 292° West 466 536 40,000  Level Salt Lake Center
Thu 11:29:34 PM 44.4397 -114.1575 292° West 467 537 40,000  Level Salt Lake Center
Thu 11:30:35 PM 44.4956 -114.3444 293° West 467 537 40,000  Level Salt Lake Center
Thu 11:31:37 PM 44.5422 -114.5050 292° West 466 536 40,000  Level Salt Lake Center
Thu 11:32:38 PM 44.5942 -114.6894 292° West 460 529 40,000  Level Salt Lake Center
Thu 11:33:39 PM 44.6403 -114.8486 292° West 461 531 40,000  Level Salt Lake Center
Thu 11:34:41 PM 44.6853 -115.0092 292° West 463 533 40,000  Level Salt Lake Center
Thu 11:35:42 PM 44.7372 -115.1972 291° West 464 534 40,000  Level Salt Lake Center
Thu 11:36:43 PM 44.7831 -115.3589 292° West 466 536 40,000  Level Salt Lake Center
Thu 11:37:45 PM 44.8344 -115.5500 291° West 470 541 40,000  Level Salt Lake Center
Thu 11:38:46 PM 44.8797 -115.7119 292° West 468 539 40,000  Level Salt Lake Center
Thu 11:39:47 PM 44.9383 -115.8692 298° West 474 545 40,000  Level Salt Lake Center
Thu 11:40:48 PM 45.0086 -116.0511 299° West 475 547 40,000  Level Salt Lake Center
Thu 11:41:50 PM 45.0692 -116.2092 299° West 478 550 40,000  Level Salt Lake Center
Thu 11:42:51 PM 45.1392 -116.3917 299° West 476 548 40,000  Level Salt Lake Center
Thu 11:43:52 PM 45.1986 -116.5489 298° West 475 547 40,000  Level Salt Lake Center
Thu 11:44:53 PM 45.2681 -116.7331 298° West 476 548 40,000  Level Salt Lake Center
Thu 11:45:55 PM 45.3267 -116.8928 298° West 477 549 40,000  Level Salt Lake Center
Thu 11:46:58 PM 45.3953 -117.0778 298° West 474 545 40,000  Level Seattle Center
Thu 11:47:59 PM 45.4547 -117.2383 298° West 478 550 40,000  Level Seattle Center
Thu 11:49:00 PM 45.5158 -117.4056 298° West 479 551 40,000  Level Seattle Center
Thu 11:50:01 PM 45.5772 -117.5731 298° West 477 549 40,000  Level Seattle Center
Thu 11:51:01 PM 45.6383 -117.7408 298° West 479 551 40,000  Level Seattle Center
Thu 11:52:02 PM 45.7011 -117.9106 298° West 477 549 40,000  Level Seattle Center
Thu 11:53:03 PM 45.7603 -118.0783 297° West 474 545 40,000  Level Seattle Center
Thu 11:54:04 PM 45.8197 -118.2461 297° West 473 544 40,000  Level Seattle Center
Thu 11:55:05 PM 45.8792 -118.4131 297° West 470 541 40,000  Level Seattle Center
Thu 11:56:05 PM 45.9358 -118.5764 297° West 471 542 40,000  Level Seattle Center
Thu 11:57:06 PM 45.9928 -118.7403 297° West 466 536 40,000  Level Seattle Center
Thu 11:58:07 PM 46.0589 -118.9272 297° West 443 510 40,000  Level Seattle Center
Thu 11:59:08 PM 46.1122 -119.0831 296° West 438 504 40,000  Level Seattle Center
Fri 12:00:09 AM 46.1644 -119.2361 296° West 431 496 40,000  Level Seattle Center
Fri 12:01:09 AM 46.2175 -119.3911 296° West 432 497 40,000  Level Seattle Center
Fri 12:02:10 AM 46.2706 -119.5475 296° West 435 501 40,000 -148 Level Seattle Center
Fri 12:03:11 AM 46.3253 -119.7094 296° West 445 512 39,700 -1,328 Descending Seattle Center
Fri 12:04:12 AM 46.3814 -119.8747 296° West 457 526 37,300 -2,361 Descending Seattle Center
Fri 12:05:13 AM 46.4361 -120.0425 295° West 461 531 34,900 -2,311 Descending Seattle Center
Fri 12:06:14 AM 46.4897 -120.2039 296° West 451 519 32,600 -2,331 Descending Seattle Center
Fri 12:07:14 AM 46.5433 -120.3675 296° West 451 519 30,200 -2,380 Descending Seattle Center
Fri 12:08:15 AM 46.6044 -120.5233 300° West 446 513 27,800 -2,262 Descending Seattle Center
Fri 12:09:16 AM 46.6714 -120.6611 305° West 422 486 25,600 -2,459 Descending Seattle Center
Fri 12:10:17 AM 46.7358 -120.7969 305° West 413 475 22,800 -2,607 Descending Seattle Center
Fri 12:11:18 AM 46.8100 -120.9517 305° West 388 447 20,300 -2,380 Descending Seattle Center
Fri 12:12:18 AM 46.8681 -121.0767 304° West 377 434 18,000 -1,983 Descending Seattle Center
Fri 12:13:19 AM 46.9256 -121.1994 304° West 368 423 16,300 -1,820 Descending Seattle Center
Fri 12:14:20 AM 46.9808 -121.3211 304° West 361 415 14,300 -1,983 Descending Seattle Center
Fri 12:15:17 AM 47.0372 -121.4367 306° West 351 404 12,400 -1,623 Descending Seattle Center
Fri 12:16:22 AM 47.0928 -121.5583 304° West 335 386 11,000 -1,116 Descending Seattle Center
Fri 12:16:43 AM 47.1081 -121.5864 309° West 307 353 10,800 -1,279 Descending Seattle Center
Fri 12:17:23 AM 47.1375 -121.6506 304° West 280 322 9,700 -1,600 Descending Seattle Center
Fri 12:17:43 AM 47.1528 -121.6886 301° West 262 302 9,200 -1,400 Descending Seattle Center
Fri 12:18:23 AM 47.1761 -121.7436 302° West 268 308 8,300 -1,475 Descending Seattle Center
Fri 12:18:44 AM 47.1878 -121.7803 295° West 260 299 7,700 -1,574 Descending Seattle Center
Fri 12:19:24 AM 47.2075 -121.8397 296° West 262 302 6,700 -1,636 Descending Seattle Center
Fri 12:19:39 AM 47.2192 -121.8672 302° West 261 300 6,200 -590 Descending Seattle Center
Fri 12:20:25 AM 47.2489 -121.9331 304° West 252 290 6,100 -505 Descending Seattle Center
Fri 12:21:26 AM 47.2883 -122.0158 305° West 249 287 5,300 -889 Descending Seattle Center
Fri 12:21:46 AM 47.2997 -122.0414 303° West 247 284 4,900 -1,475 Descending Seattle Center
Fri 12:22:27 AM 47.3272 -122.0961 307° West 243 280 3,800 -1,010 Descending Seattle Center
Fri 12:23:27 AM 47.3675 -122.1592 313° West 211 243 3,200 -720 Descending Seattle Center
Fri 12:23:42 AM 47.3778 -122.1717 321° Northwest 198 228 2,900 -787 Descending Seattle Center
Fri 12:24:28 AM 47.4094 -122.2003 329° Northwest 182 209 2,400 -730 Descending Seattle Center
Fri 12:25:37 AM 47.4553 -122.2403 329° Northwest 158 182 1,500 -738 Descending Seattle Center
Fri 12:26:38 AM 47.4894 -122.2706 329° Northwest 125 144 800 -690 Descending Seattle Center
Fri 12:27:30 AM 47.5153 -122.2903 333° Northwest 128 147 200 -372 Descending Seattle Center
Fri 12:28:31 AM 47.5444 -122.3147 331° Northwest 127 146 100 -98 Descending Seattle Center

Login

Don't have an account? Register now (free) for customized features, flight alerts, and more!